Wawasan Ruby — 3EVU7 — position and weather

sailwx.info

Track history (hours):
 
Tides and Currents Weather Stations Pressure Air Temp Water Temp Dewpoint Dewpoint Depression Visibility Wind Speed Wind Dir Waves Ship Positions

Wawasan Ruby

Last reported at 2017-Apr-15 00:31 UTC. Time now 2017-Apr-28 16:07 UTC.
Position N 38°05' E 122°45'.
Warning: this ship's position is 13 days out of date.

Length 146 m; draft 7.7 m.

Type: Tanker. MMSI: 355619000.

Date/timePositionNaut miles runAvg speedWind from/ knotsBaromVisibWave heightAir tempDewpointWater temp
2017-Apr-15 00:31N 38°05' E 122°45'412.1
2017-Apr-15 00:11N 38°06' E 122°40'412.1
2017-Apr-14 23:48N 38°07' E 122°35'412.2
2017-Apr-14 23:30N 38°08' E 122°30'612.5
2017-Apr-14 22:59N 38°09' E 122°22'612.8
2017-Apr-14 22:30N 38°11' E 122°15'612.9
2017-Apr-14 22:00N 38°13' E 122°07'713.0
2017-Apr-14 21:30N 38°15' E 121°59'713.1
2017-Apr-14 21:00N 38°17' E 121°51'613.1
2017-Apr-14 20:30N 38°18' E 121°43'712.9
2017-Apr-14 19:58N 38°19' E 121°34'612.6
2017-Apr-14 19:30N 38°19' E 121°26'812.2
2017-Apr-14 18:49N 38°22' E 121°17'512.0
2017-Apr-14 18:23N 38°25' E 121°10'3411.6
2017-Apr-14 15:27N 38°36' E 120°30'612.5
2017-Apr-14 15:00N 38°37' E 120°23'  
Track history (hours):
 
Tides and Currents Weather Stations Pressure Air Temp Water Temp Dewpoint Dewpoint Depression Visibility Wind Speed Wind Dir Waves Ship Positions

Wawasan Ruby

Last reported at 2017-Apr-15 00:31 UTC. Time now 2017-Apr-28 16:07 UTC.
Position N 38°05' E 122°45'.
Warning: this ship's position is 13 days out of date.

Length 146 m; draft 7.7 m.

Type: Tanker. MMSI: 355619000.

Date/timePositionNaut miles runAvg speedWind from/ knotsBaromVisibWave heightAir tempDewpointWater temp
2017-Apr-15 00:31N 38°05' E 122°45'412.1
2017-Apr-15 00:11N 38°06' E 122°40'412.1
2017-Apr-14 23:48N 38°07' E 122°35'412.2
2017-Apr-14 23:30N 38°08' E 122°30'612.5
2017-Apr-14 22:59N 38°09' E 122°22'612.8
2017-Apr-14 22:30N 38°11' E 122°15'612.9
2017-Apr-14 22:00N 38°13' E 122°07'713.0
2017-Apr-14 21:30N 38°15' E 121°59'713.1
2017-Apr-14 21:00N 38°17' E 121°51'613.1
2017-Apr-14 20:30N 38°18' E 121°43'712.9
2017-Apr-14 19:58N 38°19' E 121°34'612.6
2017-Apr-14 19:30N 38°19' E 121°26'812.2
2017-Apr-14 18:49N 38°22' E 121°17'512.0
2017-Apr-14 18:23N 38°25' E 121°10'3411.6
2017-Apr-14 15:27N 38°36' E 120°30'612.5
2017-Apr-14 15:00N 38°37' E 120°23'  

Dump ship's entire track history